SBSM

Details ICAO SBSM (RIA)
Name Santa Maria
Region Brazil
Timezone America/Sao_Paulo (UTC-2.0)
Plans Departing 129
Arriving 119
Stats Elevation 287 ft / 87 m (AMSL)
Location -29.712400° -53.689100°
Runways 2
Magnetic Variation 15.940° W
Sunrise 2021-12-07 08:28:24 UTC / 2021-12-07 06:28:24 Local
Sunset 2021-12-07 22:27:08 UTC / 2021-12-07 20:27:08 Local
Advertisement - Login to hide

Runways

ID Width Length Bearing (true/mag) Surface Threshold Overrun Markings Lighting
02 100 ft / 30 m 5,806 ft / 1,770 m 2.56° / 18.50° ASPHALT 0 ft / 0 m 185 ft / 56 m APP EDGE THRESHOLD
11 148 ft / 45 m 8,836 ft / 2,693 m 93.44° / 109.38° CONCRETE 0 ft / 0 m 1,140 ft / 347 m APP EDGE THRESHOLD ALSF-I
20 100 ft / 30 m 5,806 ft / 1,770 m 182.56° / 198.50° ASPHALT 1,170 ft / 357 m 0 ft / 0 m APP EDGE THRESHOLD
29 148 ft / 45 m 8,836 ft / 2,693 m 273.43° / 289.37° CONCRETE 0 ft / 0 m 1,140 ft / 347 m APP EDGE THRESHOLD

Map

Weather


0- 5 10 15 20 25 30 35+ Temperature / °C

Clouds and Precipitation
Forecast for 2021-12-08 00:00 UTC. Updated 2 hours ago

Ground ~20,000 ft ~40,000 ft Winds

METAR

SBSM 072300Z 10010KT CAVOK 22/13 Q1017

TAF

TAF SBSM 071500Z 0718/0806 10012KT 9999 SCT035 TX27/0718Z TN16/0806Z BECMG 0723/0801 15010KT FEW040 RMK PEN

Frequencies

Approach 119.35 MHz
Tower 118.30 MHz
Tower 118.85 MHz
Approach 121.35 MHz
Warning: Do not use this data for real-world aviation or navigation. No guarantee of current accuracy is given.